< < Back
Terminal Aerodrome Forecast


Current Version              Previous Versions:   1  2  3  4  5  6  7  8  9  

Terminal Aerodrome Forecast

552
FTUS42 KMLB 250525
TAFDAB
TAF
KDAB 250525Z 2506/2606 09003KT P6SM VCSH SCT020
     FM251400 10010KT P6SM SCT025 BKN050
     FM251800 09012G20KT P6SM SCT030 BKN060
     FM260000 09007KT P6SM SCT030 SCT250=

Latest METAR

470
SAUS80 KWBC 260100 CCA
MTRDAB
METAR KDAB 260053Z 11007KT 10SM FEW025 SCT250 26/22 A3019 RMK AO2 SLP221
T02610217


USA.gov is the U.S. government's official web portal to all federal, state and local government web resources and services.